sensor_id;sensor_type;location;lat;lon;timestamp;pressure;altitude;pressure_sealevel;temperature;humidity
47785;BME280;35233;55.686;37.848;2023-01-25T00:01:41;101311.69;;;10.21;48.91
47785;BME280;35233;55.686;37.848;2023-01-25T00:04:06;101302.88;;;10.13;48.59
47785;BME280;35233;55.686;37.848;2023-01-25T00:06:33;101320.47;;;10.26;48.76
47785;BME280;35233;55.686;37.848;2023-01-25T00:08:58;101321.34;;;10.24;48.89
47785;BME280;35233;55.686;37.848;2023-01-25T00:11:24;101295.81;;;10.10;48.80
47785;BME280;35233;55.686;37.848;2023-01-25T00:13:52;101302.88;;;10.16;48.97
47785;BME280;35233;55.686;37.848;2023-01-25T00:16:18;101300.19;;;10.20;48.74
47785;BME280;35233;55.686;37.848;2023-01-25T00:18:43;101307.25;;;10.20;48.91
47785;BME280;35233;55.686;37.848;2023-01-25T00:21:20;101289.66;;;10.11;48.70
47785;BME280;35233;55.686;37.848;2023-01-25T00:23:46;101314.28;;;10.18;49.11
47785;BME280;35233;55.686;37.848;2023-01-25T00:26:11;101301.97;;;10.17;48.92
47785;BME280;35233;55.686;37.848;2023-01-25T00:28:37;101287.03;;;10.07;49.02
47785;BME280;35233;55.686;37.848;2023-01-25T00:31:04;101298.47;;;10.10;49.16
47785;BME280;35233;55.686;37.848;2023-01-25T00:36:18;101293.19;;;10.07;49.08
47785;BME280;35233;55.686;37.848;2023-01-25T00:38:47;101302.00;;;10.12;48.41
47785;BME280;35233;55.686;37.848;2023-01-25T00:41:13;101295.81;;;10.10;48.92
47785;BME280;35233;55.686;37.848;2023-01-25T00:43:38;101294.06;;;10.11;48.87
47785;BME280;35233;55.686;37.848;2023-01-25T00:46:04;101284.38;;;10.08;48.77
47785;BME280;35233;55.686;37.848;2023-01-25T00:48:29;101288.75;;;10.09;48.86
47785;BME280;35233;55.686;37.848;2023-01-25T00:51:02;101289.66;;;10.11;48.80
47785;BME280;35233;55.686;37.848;2023-01-25T00:53:27;101272.06;;;10.01;48.94
47785;BME280;35233;55.686;37.848;2023-01-25T00:55:53;101282.59;;;10.12;48.93
47785;BME280;35233;55.686;37.848;2023-01-25T00:58:18;101256.22;;;10.04;48.88
47785;BME280;35233;55.686;37.848;2023-01-25T01:00:44;101259.75;;;10.02;48.92
47785;BME280;35233;55.686;37.848;2023-01-25T01:03:09;101258.84;;;10.09;48.83
47785;BME280;35233;55.686;37.848;2023-01-25T01:05:35;101259.72;;;10.09;48.54
47785;BME280;35233;55.686;37.848;2023-01-25T01:08:01;101245.66;;;10.00;48.69
47785;BME280;35233;55.686;37.848;2023-01-25T01:10:27;101252.72;;;10.04;48.98
47785;BME280;35233;55.686;37.848;2023-01-25T01:12:52;101256.22;;;10.04;48.79
47785;BME280;35233;55.686;37.848;2023-01-25T01:15:18;101251.81;;;10.08;48.80
47785;BME280;35233;55.686;37.848;2023-01-25T01:17:43;101249.19;;;10.02;48.59
47785;BME280;35233;55.686;37.848;2023-01-25T01:20:09;101255.34;;;10.07;48.84
47785;BME280;35233;55.686;37.848;2023-01-25T01:22:35;101249.19;;;10.05;48.92
47785;BME280;35233;55.686;37.848;2023-01-25T01:25:00;101245.66;;;10.01;48.68
47785;BME280;35233;55.686;37.848;2023-01-25T01:27:26;101253.56;;;10.06;48.84
47785;BME280;35233;55.686;37.848;2023-01-25T01:29:51;101244.78;;;10.04;48.73
47785;BME280;35233;55.686;37.848;2023-01-25T01:32:17;101243.00;;;10.00;48.85
47785;BME280;35233;55.686;37.848;2023-01-25T01:34:42;101240.38;;;10.03;48.90
47785;BME280;35233;55.686;37.848;2023-01-25T01:37:08;101226.31;;;9.90;48.78
47785;BME280;35233;55.686;37.848;2023-01-25T01:39:34;101228.91;;;9.97;48.66
47785;BME280;35233;55.686;37.848;2023-01-25T01:41:59;101220.13;;;9.97;49.04
47785;BME280;35233;55.686;37.848;2023-01-25T01:44:45;101229.81;;;10.04;49.07
47785;BME280;35233;55.686;37.848;2023-01-25T01:47:16;101227.16;;;10.03;48.89
47785;BME280;35233;55.686;37.848;2023-01-25T01:49:49;101220.13;;;10.02;48.92
47785;BME280;35233;55.686;37.848;2023-01-25T01:52:16;101205.16;;;9.97;48.77
47785;BME280;35233;55.686;37.848;2023-01-25T01:55:08;101220.13;;;10.03;48.79
47785;BME280;35233;55.686;37.848;2023-01-25T01:57:38;101221.88;;;10.00;48.61
47785;BME280;35233;55.686;37.848;2023-01-25T02:00:18;101213.09;;;9.88;48.92
47785;BME280;35233;55.686;37.848;2023-01-25T02:02:46;101216.63;;;9.95;48.96
47785;BME280;35233;55.686;37.848;2023-01-25T02:05:21;101207.81;;;9.91;48.85
47785;BME280;35233;55.686;37.848;2023-01-25T02:07:52;101214.00;;;9.95;49.13
47785;BME280;35233;55.686;37.848;2023-01-25T02:10:19;101210.44;;;9.94;48.88
47785;BME280;35233;55.686;37.848;2023-01-25T02:12:47;101226.28;;;9.94;48.98
47785;BME280;35233;55.686;37.848;2023-01-25T02:15:13;101225.44;;;9.92;49.14
47785;BME280;35233;55.686;37.848;2023-01-25T02:17:39;101221.00;;;9.88;48.86
47785;BME280;35233;55.686;37.848;2023-01-25T02:22:58;101215.75;;;9.90;48.95
47785;BME280;35233;55.686;37.848;2023-01-25T02:25:24;101221.03;;;9.93;48.76
47785;BME280;35233;55.686;37.848;2023-01-25T02:27:55;101216.63;;;9.93;48.85
47785;BME280;35233;55.686;37.848;2023-01-25T02:30:22;101190.22;;;9.80;48.78
47785;BME280;35233;55.686;37.848;2023-01-25T02:32:47;101219.25;;;9.90;49.12
47785;BME280;35233;55.686;37.848;2023-01-25T02:38:02;101221.88;;;9.80;49.16
47785;BME280;35233;55.686;37.848;2023-01-25T02:40:30;101241.25;;;9.91;49.01
47785;BME280;35233;55.686;37.848;2023-01-25T02:42:57;101236.00;;;9.83;48.95
47785;BME280;35233;55.686;37.848;2023-01-25T02:45:24;101221.00;;;9.82;49.33
47785;BME280;35233;55.686;37.848;2023-01-25T02:47:53;101209.56;;;9.77;49.04
47785;BME280;35233;55.686;37.848;2023-01-25T02:50:18;101222.78;;;9.88;48.83
47785;BME280;35233;55.686;37.848;2023-01-25T02:52:44;101233.34;;;9.86;49.07
47785;BME280;35233;55.686;37.848;2023-01-25T02:55:09;101236.00;;;9.86;48.83
47785;BME280;35233;55.686;37.848;2023-01-25T02:57:35;101226.31;;;9.87;48.90
47785;BME280;35233;55.686;37.848;2023-01-25T03:00:01;101218.38;;;9.87;48.80
47785;BME280;35233;55.686;37.848;2023-01-25T03:02:26;101217.50;;;9.82;49.05
47785;BME280;35233;55.686;37.848;2023-01-25T03:04:52;101235.09;;;9.87;48.86
47785;BME280;35233;55.686;37.848;2023-01-25T03:07:17;101230.72;;;9.83;49.05
47785;BME280;35233;55.686;37.848;2023-01-25T03:09:43;101232.44;;;9.86;48.95
47785;BME280;35233;55.686;37.848;2023-01-25T03:12:08;101216.63;;;9.80;49.04
47785;BME280;35233;55.686;37.848;2023-01-25T03:14:34;101224.53;;;9.84;49.03
47785;BME280;35233;55.686;37.848;2023-01-25T03:16:59;101210.47;;;9.79;48.86
47785;BME280;35233;55.686;37.848;2023-01-25T03:19:25;101206.94;;;9.75;48.82
47785;BME280;35233;55.686;37.848;2023-01-25T03:21:50;101221.03;;;9.78;49.11
47785;BME280;35233;55.686;37.848;2023-01-25T03:24:16;101212.25;;;9.83;48.85
47785;BME280;35233;55.686;37.848;2023-01-25T03:26:42;101197.25;;;9.82;49.03
47785;BME280;35233;55.686;37.848;2023-01-25T03:29:29;101207.84;;;9.81;48.95
47785;BME280;35233;55.686;37.848;2023-01-25T03:31:54;101198.16;;;9.75;48.97
47785;BME280;35233;55.686;37.848;2023-01-25T03:34:20;101191.09;;;9.68;49.18
47785;BME280;35233;55.686;37.848;2023-01-25T03:36:45;101192.00;;;9.73;49.26
47785;BME280;35233;55.686;37.848;2023-01-25T03:39:11;101207.81;;;9.82;48.92
47785;BME280;35233;55.686;37.848;2023-01-25T03:41:36;101197.25;;;9.82;48.95
47785;BME280;35233;55.686;37.848;2023-01-25T03:44:02;101180.53;;;9.74;49.01
47785;BME280;35233;55.686;37.848;2023-01-25T03:46:27;101201.66;;;9.80;49.09
47785;BME280;35233;55.686;37.848;2023-01-25T03:48:53;101192.00;;;9.73;49.11
47785;BME280;35233;55.686;37.848;2023-01-25T03:51:18;101196.38;;;9.75;49.12
47785;BME280;35233;55.686;37.848;2023-01-25T03:53:44;101193.75;;;9.74;49.29
47785;BME280;35233;55.686;37.848;2023-01-25T03:56:10;101202.53;;;9.76;49.27
47785;BME280;35233;55.686;37.848;2023-01-25T03:58:37;101206.06;;;9.81;49.18
47785;BME280;35233;55.686;37.848;2023-01-25T04:01:05;101203.41;;;9.80;49.06
47785;BME280;35233;55.686;37.848;2023-01-25T04:03:31;101198.13;;;9.77;49.20
47785;BME280;35233;55.686;37.848;2023-01-25T04:05:57;101192.00;;;9.74;49.32
47785;BME280;35233;55.686;37.848;2023-01-25T04:08:23;101188.47;;;9.74;49.24
47785;BME280;35233;55.686;37.848;2023-01-25T04:10:54;101186.72;;;9.70;49.49
47785;BME280;35233;55.686;37.848;2023-01-25T04:13:21;101195.53;;;9.75;49.20
47785;BME280;35233;55.686;37.848;2023-01-25T04:15:48;101189.34;;;9.73;49.21
47785;BME280;35233;55.686;37.848;2023-01-25T04:18:14;101189.34;;;9.76;49.34
47785;BME280;35233;55.686;37.848;2023-01-25T04:20:40;101188.47;;;9.74;49.37
47785;BME280;35233;55.686;37.848;2023-01-25T04:23:06;101185.81;;;9.74;49.17
47785;BME280;35233;55.686;37.848;2023-01-25T04:25:32;101180.53;;;9.74;49.36
47785;BME280;35233;55.686;37.848;2023-01-25T04:27:58;101187.59;;;9.73;49.47
47785;BME280;35233;55.686;37.848;2023-01-25T04:30:24;101189.34;;;9.71;49.69
47785;BME280;35233;55.686;37.848;2023-01-25T04:32:50;101195.53;;;9.72;50.25
47785;BME280;35233;55.686;37.848;2023-01-25T04:35:17;101199.91;;;9.74;50.64
47785;BME280;35233;55.686;37.848;2023-01-25T04:37:54;101196.38;;;9.71;50.98
47785;BME280;35233;55.686;37.848;2023-01-25T04:40:20;101185.81;;;9.71;50.96
47785;BME280;35233;55.686;37.848;2023-01-25T04:42:46;101192.00;;;9.74;51.37
47785;BME280;35233;55.686;37.848;2023-01-25T04:45:11;101198.16;;;9.75;51.78
47785;BME280;35233;55.686;37.848;2023-01-25T04:47:37;101193.75;;;9.72;51.66
47785;BME280;35233;55.686;37.848;2023-01-25T04:50:02;101203.41;;;9.73;51.82
47785;BME280;35233;55.686;37.848;2023-01-25T04:52:28;101204.28;;;9.74;51.71
47785;BME280;35233;55.686;37.848;2023-01-25T04:54:54;101199.03;;;9.71;51.61
47785;BME280;35233;55.686;37.848;2023-01-25T04:57:19;101208.72;;;9.69;51.97
47785;BME280;35233;55.686;37.848;2023-01-25T04:59:45;101209.56;;;9.68;51.68
47785;BME280;35233;55.686;37.848;2023-01-25T05:02:10;101219.25;;;9.73;52.17
47785;BME280;35233;55.686;37.848;2023-01-25T05:04:36;101219.25;;;9.73;52.09
47785;BME280;35233;55.686;37.848;2023-01-25T05:07:01;101205.16;;;9.65;52.75
47785;BME280;35233;55.686;37.848;2023-01-25T05:09:27;101220.13;;;9.74;52.63
47785;BME280;35233;55.686;37.848;2023-01-25T05:11:53;101223.66;;;9.76;52.54
47785;BME280;35233;55.686;37.848;2023-01-25T05:14:18;101200.78;;;9.64;52.62
47785;BME280;35233;55.686;37.848;2023-01-25T05:16:44;101203.44;;;9.72;52.97
47785;BME280;35233;55.686;37.848;2023-01-25T05:19:10;101219.28;;;9.75;52.84
47785;BME280;35233;55.686;37.848;2023-01-25T05:21:35;101214.88;;;9.72;52.88
47785;BME280;35233;55.686;37.848;2023-01-25T05:24:19;101211.34;;;9.72;52.54
47785;BME280;35233;55.686;37.848;2023-01-25T05:26:45;101206.06;;;9.69;52.91
47785;BME280;35233;55.686;37.848;2023-01-25T05:29:33;101207.81;;;9.70;52.85
47785;BME280;35233;55.686;37.848;2023-01-25T05:32:03;101220.13;;;9.74;52.70
47785;BME280;35233;55.686;37.848;2023-01-25T05:34:29;101209.56;;;9.62;52.86
47785;BME280;35233;55.686;37.848;2023-01-25T05:36:55;101204.31;;;9.66;52.78
47785;BME280;35233;55.686;37.848;2023-01-25T05:39:22;101222.78;;;9.72;52.43
47785;BME280;35233;55.686;37.848;2023-01-25T05:41:48;101216.59;;;9.63;52.65
47785;BME280;35233;55.686;37.848;2023-01-25T05:44:14;101219.25;;;9.64;52.48
47785;BME280;35233;55.686;37.848;2023-01-25T05:46:39;101231.56;;;9.71;52.75
47785;BME280;35233;55.686;37.848;2023-01-25T05:49:05;101227.19;;;9.69;52.47
47785;BME280;35233;55.686;37.848;2023-01-25T05:51:30;101212.22;;;9.72;52.55
47785;BME280;35233;55.686;37.848;2023-01-25T05:53:56;101221.03;;;9.73;52.48
47785;BME280;35233;55.686;37.848;2023-01-25T05:56:22;101221.91;;;9.75;52.50
47785;BME280;35233;55.686;37.848;2023-01-25T05:58:52;101207.81;;;9.73;52.44
47785;BME280;35233;55.686;37.848;2023-01-25T06:01:18;101191.97;;;9.65;52.31
47785;BME280;35233;55.686;37.848;2023-01-25T06:03:45;101200.78;;;9.72;52.35
47785;BME280;35233;55.686;37.848;2023-01-25T06:06:10;101208.72;;;9.72;52.29
47785;BME280;35233;55.686;37.848;2023-01-25T06:08:36;101195.50;;;9.70;52.31
47785;BME280;35233;55.686;37.848;2023-01-25T06:11:08;101194.63;;;9.67;52.46
47785;BME280;35233;55.686;37.848;2023-01-25T06:13:37;101195.53;;;9.69;52.18
47785;BME280;35233;55.686;37.848;2023-01-25T06:16:03;101205.19;;;9.73;51.88
47785;BME280;35233;55.686;37.848;2023-01-25T06:18:37;101203.41;;;9.73;52.11
47785;BME280;35233;55.686;37.848;2023-01-25T06:21:03;101196.38;;;9.68;52.05
47785;BME280;35233;55.686;37.848;2023-01-25T06:23:37;101197.25;;;9.71;52.00
47785;BME280;35233;55.686;37.848;2023-01-25T06:26:05;101177.91;;;9.62;51.83
47785;BME280;35233;55.686;37.848;2023-01-25T06:28:37;101187.59;;;9.72;52.05
47785;BME280;35233;55.686;37.848;2023-01-25T06:31:14;101191.13;;;9.72;51.78
47785;BME280;35233;55.686;37.848;2023-01-25T06:33:41;101199.91;;;9.82;51.92
47785;BME280;35233;55.686;37.848;2023-01-25T06:36:12;101170.88;;;9.64;52.00
47785;BME280;35233;55.686;37.848;2023-01-25T06:38:38;101186.72;;;9.79;51.69
47785;BME280;35233;55.686;37.848;2023-01-25T06:41:05;101169.09;;;9.77;51.63
47785;BME280;35233;55.686;37.848;2023-01-25T06:43:37;101187.59;;;9.81;51.96
47785;BME280;35233;55.686;37.848;2023-01-25T06:46:05;101195.50;;;9.87;51.63
47785;BME280;35233;55.686;37.848;2023-01-25T06:48:37;101198.13;;;9.86;51.84
47785;BME280;35233;55.686;37.848;2023-01-25T06:51:05;101188.47;;;9.83;51.47
47785;BME280;35233;55.686;37.848;2023-01-25T06:53:39;101193.75;;;9.86;51.76
47785;BME280;35233;55.686;37.848;2023-01-25T06:56:13;101189.34;;;9.88;52.13
47785;BME280;35233;55.686;37.848;2023-01-25T06:58:40;101194.63;;;9.82;52.10
47785;BME280;35233;55.686;37.848;2023-01-25T07:01:17;101197.25;;;9.85;51.83
47785;BME280;35233;55.686;37.848;2023-01-25T07:03:51;101202.53;;;9.93;51.89
47785;BME280;35233;55.686;37.848;2023-01-25T07:06:17;101210.44;;;9.91;52.07
47785;BME280;35233;55.686;37.848;2023-01-25T07:08:43;101210.47;;;9.90;52.34
47785;BME280;35233;55.686;37.848;2023-01-25T07:11:12;101213.09;;;9.94;51.97
47785;BME280;35233;55.686;37.848;2023-01-25T07:13:42;101223.66;;;9.93;51.89
47785;BME280;35233;55.686;37.848;2023-01-25T07:16:15;101211.34;;;9.93;52.10
47785;BME280;35233;55.686;37.848;2023-01-25T07:18:41;101211.34;;;9.95;52.24
47785;BME280;35233;55.686;37.848;2023-01-25T07:21:13;101210.44;;;9.94;51.94
47785;BME280;35233;55.686;37.848;2023-01-25T07:23:39;101204.31;;;9.89;51.89
47785;BME280;35233;55.686;37.848;2023-01-25T07:26:14;101205.16;;;9.94;52.05
47785;BME280;35233;55.686;37.848;2023-01-25T07:28:41;101212.22;;;9.95;52.04
47785;BME280;35233;55.686;37.848;2023-01-25T07:31:06;101189.34;;;9.88;52.16
47785;BME280;35233;55.686;37.848;2023-01-25T07:33:38;101181.41;;;9.88;51.96
47785;BME280;35233;55.686;37.848;2023-01-25T07:36:06;101206.03;;;10.00;52.17
47785;BME280;35233;55.686;37.848;2023-01-25T07:38:37;101174.41;;;9.81;52.34
47785;BME280;35233;55.686;37.848;2023-01-25T07:41:03;101206.03;;;10.03;51.83
47785;BME280;35233;55.686;37.848;2023-01-25T07:43:37;101208.69;;;10.00;52.07
47785;BME280;35233;55.686;37.848;2023-01-25T07:46:08;101221.00;;;10.02;52.17
47785;BME280;35233;55.686;37.848;2023-01-25T07:48:38;101203.41;;;10.00;51.90
47785;BME280;35233;55.686;37.848;2023-01-25T07:51:06;101209.56;;;10.05;52.07
47785;BME280;35233;55.686;37.848;2023-01-25T07:53:52;101202.53;;;10.05;51.91
47785;BME280;35233;55.686;37.848;2023-01-25T07:56:20;101206.03;;;10.10;52.09
47785;BME280;35233;55.686;37.848;2023-01-25T07:58:46;101205.16;;;10.11;51.96
47785;BME280;35233;55.686;37.848;2023-01-25T08:01:17;101174.38;;;9.95;51.91
47785;BME280;35233;55.686;37.848;2023-01-25T08:03:44;101191.97;;;10.04;51.94
47785;BME280;35233;55.686;37.848;2023-01-25T08:06:10;101194.59;;;10.10;51.79
47785;BME280;35233;55.686;37.848;2023-01-25T08:08:47;101202.53;;;10.13;51.65
47785;BME280;35233;55.686;37.848;2023-01-25T08:11:16;101183.16;;;10.00;51.80
47785;BME280;35233;55.686;37.848;2023-01-25T08:13:42;101173.47;;;9.97;51.83
47785;BME280;35233;55.686;37.848;2023-01-25T08:16:15;101195.44;;;10.15;51.75
47785;BME280;35233;55.686;37.848;2023-01-25T08:18:42;101196.34;;;10.17;51.91
47785;BME280;35233;55.686;37.848;2023-01-25T08:21:11;101184.91;;;10.09;51.56
47785;BME280;35233;55.686;37.848;2023-01-25T08:23:38;101197.22;;;10.20;51.28
47785;BME280;35233;55.686;37.848;2023-01-25T08:26:05;101191.94;;;10.19;51.65
47785;BME280;35233;55.686;37.848;2023-01-25T08:28:37;101193.69;;;10.23;51.68
47785;BME280;35233;55.686;37.848;2023-01-25T08:31:07;101176.97;;;10.21;51.17
47785;BME280;35233;55.686;37.848;2023-01-25T08:33:39;101191.91;;;10.24;51.27
47785;BME280;35233;55.686;37.848;2023-01-25T08:36:06;101190.19;;;10.29;51.35
47785;BME280;35233;55.686;37.848;2023-01-25T08:38:40;101187.56;;;10.30;51.20
47785;BME280;35233;55.686;37.848;2023-01-25T08:41:11;101191.06;;;10.25;51.16
47785;BME280;35233;55.686;37.848;2023-01-25T08:43:38;101176.97;;;10.15;51.16
47785;BME280;35233;55.686;37.848;2023-01-25T08:46:04;101186.69;;;10.13;51.19
47785;BME280;35233;55.686;37.848;2023-01-25T08:48:37;101183.13;;;10.17;51.03
47785;BME280;35233;55.686;37.848;2023-01-25T08:51:02;101179.63;;;10.16;51.29
47785;BME280;35233;55.686;37.848;2023-01-25T08:53:35;101189.28;;;10.17;51.52
47785;BME280;35233;55.686;37.848;2023-01-25T08:56:09;101176.97;;;10.12;51.27
47785;BME280;35233;55.686;37.848;2023-01-25T08:58:37;101170.81;;;10.16;50.89
47785;BME280;35233;55.686;37.848;2023-01-25T09:01:05;101172.56;;;10.17;51.32
47785;BME280;35233;55.686;37.848;2023-01-25T09:03:34;101174.34;;;10.19;51.09
47785;BME280;35233;55.686;37.848;2023-01-25T09:05:59;101156.72;;;10.22;50.93
47785;BME280;35233;55.686;37.848;2023-01-25T09:08:25;101150.56;;;10.19;51.11
47785;BME280;35233;55.686;37.848;2023-01-25T09:10:51;101153.22;;;10.21;51.04
47785;BME280;35233;55.686;37.848;2023-01-25T09:13:17;101151.41;;;10.26;50.87
47785;BME280;35233;55.686;37.848;2023-01-25T09:15:44;101135.56;;;10.23;51.04
47785;BME280;35233;55.686;37.848;2023-01-25T09:18:10;101132.06;;;10.24;51.01
47785;BME280;35233;55.686;37.848;2023-01-25T09:20:38;101132.06;;;10.24;51.11
47785;BME280;35233;55.686;37.848;2023-01-25T09:23:04;101130.31;;;10.25;51.17
47785;BME280;35233;55.686;37.848;2023-01-25T09:25:29;101128.53;;;10.25;51.12
47785;BME280;35233;55.686;37.848;2023-01-25T09:27:55;101111.84;;;10.14;51.20
47785;BME280;35233;55.686;37.848;2023-01-25T09:30:20;101123.28;;;10.22;51.22
47785;BME280;35233;55.686;37.848;2023-01-25T09:32:49;101125.03;;;10.29;50.97
47785;BME280;35233;55.686;37.848;2023-01-25T09:35:15;101118.00;;;10.22;51.43
47785;BME280;35233;55.686;37.848;2023-01-25T09:37:41;101115.34;;;10.25;50.87
47785;BME280;35233;55.686;37.848;2023-01-25T09:40:18;101130.28;;;10.35;51.02
47785;BME280;35233;55.686;37.848;2023-01-25T09:45:31;101116.25;;;10.30;51.00
47785;BME280;35233;55.686;37.848;2023-01-25T09:55:31;101095.97;;;10.29;51.47
47785;BME280;35233;55.686;37.848;2023-01-25T09:58:00;101095.97;;;10.31;51.51
47785;BME280;35233;55.686;37.848;2023-01-25T10:00:36;101090.69;;;10.29;51.61
47785;BME280;35233;55.686;37.848;2023-01-25T10:05:52;101077.47;;;10.23;51.49
47785;BME280;35233;55.686;37.848;2023-01-25T10:10:53;101069.56;;;10.22;51.42
47785;BME280;35233;55.686;37.848;2023-01-25T10:13:23;101052.00;;;10.16;51.24
47785;BME280;35233;55.686;37.848;2023-01-25T10:15:51;101059.88;;;10.20;51.31
47785;BME280;35233;55.686;37.848;2023-01-25T10:18:48;101049.34;;;10.14;51.42
47785;BME280;35233;55.686;37.848;2023-01-25T10:21:27;101059.88;;;10.22;51.49
47785;BME280;35233;55.686;37.848;2023-01-25T10:24:05;101057.22;;;10.25;51.48
47785;BME280;35233;55.686;37.848;2023-01-25T10:26:36;101048.44;;;10.23;51.58
47785;BME280;35233;55.686;37.848;2023-01-25T10:31:39;101043.16;;;10.20;51.62
47785;BME280;35233;55.686;37.848;2023-01-25T10:34:25;101051.09;;;10.20;51.32
47785;BME280;35233;55.686;37.848;2023-01-25T10:37:13;101051.09;;;10.17;51.48
47785;BME280;35233;55.686;37.848;2023-01-25T10:39:44;101043.22;;;10.08;51.67
47785;BME280;35233;55.686;37.848;2023-01-25T10:42:14;101042.31;;;10.09;51.62
47785;BME280;35233;55.686;37.848;2023-01-25T10:44:40;101054.63;;;10.14;51.34
47785;BME280;35233;55.686;37.848;2023-01-25T10:47:14;101066.06;;;10.16;51.31
47785;BME280;35233;55.686;37.848;2023-01-25T10:49:46;101056.41;;;10.11;51.74
47785;BME280;35233;55.686;37.848;2023-01-25T10:54:41;101059.94;;;10.10;51.59
47785;BME280;35233;55.686;37.848;2023-01-25T10:57:08;101044.97;;;10.09;51.68
47785;BME280;35233;55.686;37.848;2023-01-25T10:59:36;101045.84;;;10.12;51.45
47785;BME280;35233;55.686;37.848;2023-01-25T11:02:43;101037.03;;;10.13;51.56
47785;BME280;35233;55.686;37.848;2023-01-25T11:07:45;101029.97;;;10.22;51.58
47785;BME280;35233;55.686;37.848;2023-01-25T11:16:12;101030.81;;;10.27;51.43
47785;BME280;35233;55.686;37.848;2023-01-25T11:18:49;101018.50;;;10.26;51.30
47785;BME280;35233;55.686;37.848;2023-01-25T11:21:17;101014.97;;;10.20;51.25
47785;BME280;35233;55.686;37.848;2023-01-25T11:26:36;101013.22;;;10.29;51.01
47785;BME280;35233;55.686;37.848;2023-01-25T11:31:40;101001.78;;;10.25;51.03
47785;BME280;35233;55.686;37.848;2023-01-25T11:34:17;100990.31;;;10.23;51.24
47785;BME280;35233;55.686;37.848;2023-01-25T11:36:50;101000.91;;;10.25;51.26
47785;BME280;35233;55.686;37.848;2023-01-25T11:39:45;100985.09;;;10.18;51.20
47785;BME280;35233;55.686;37.848;2023-01-25T11:59:55;100978.88;;;10.23;51.13
47785;BME280;35233;55.686;37.848;2023-01-25T12:14:09;100968.41;;;10.09;51.02
47785;BME280;35233;55.686;37.848;2023-01-25T12:19:53;100981.63;;;10.04;50.91
47785;BME280;35233;55.686;37.848;2023-01-25T12:25:55;100972.84;;;10.04;51.26
47785;BME280;35233;55.686;37.848;2023-01-25T12:28:30;100979.03;;;9.96;50.97
47785;BME280;35233;55.686;37.848;2023-01-25T12:33:40;100977.28;;;9.95;51.08
47785;BME280;35233;55.686;37.848;2023-01-25T12:38:48;100952.66;;;9.92;50.70
47785;BME280;35233;55.686;37.848;2023-01-25T12:41:39;100964.06;;;9.97;50.94
47785;BME280;35233;55.686;37.848;2023-01-25T12:44:14;100959.66;;;9.94;51.01
47785;BME280;35233;55.686;37.848;2023-01-25T12:52:18;100950.91;;;9.92;50.72
47785;BME280;35233;55.686;37.848;2023-01-25T12:54:46;100939.47;;;9.86;51.02
47785;BME280;35233;55.686;37.848;2023-01-25T13:02:43;100941.22;;;9.85;51.16
47785;BME280;35233;55.686;37.848;2023-01-25T13:11:10;100925.44;;;9.79;50.90
47785;BME280;35233;55.686;37.848;2023-01-25T13:13:37;100941.25;;;9.82;50.80
47785;BME280;35233;55.686;37.848;2023-01-25T13:16:22;100939.50;;;9.80;50.87
47785;BME280;35233;55.686;37.848;2023-01-25T13:18:48;100931.59;;;9.77;50.69
47785;BME280;35233;55.686;37.848;2023-01-25T13:32:10;100920.19;;;9.74;50.93
47785;BME280;35233;55.686;37.848;2023-01-25T13:37:27;100907.00;;;9.73;50.93
47785;BME280;35233;55.686;37.848;2023-01-25T13:40:00;100899.97;;;9.72;51.23
47785;BME280;35233;55.686;37.848;2023-01-25T13:42:33;100898.19;;;9.71;51.00
47785;BME280;35233;55.686;37.848;2023-01-25T13:45:13;100899.09;;;9.70;50.98
47785;BME280;35233;55.686;37.848;2023-01-25T13:47:42;100890.31;;;9.65;51.24
47785;BME280;35233;55.686;37.848;2023-01-25T13:50:17;100892.94;;;9.69;51.29
47785;BME280;35233;55.686;37.848;2023-01-25T13:53:03;100886.81;;;9.64;51.14
47785;BME280;35233;55.686;37.848;2023-01-25T13:55:38;100886.78;;;9.69;51.29
47785;BME280;35233;55.686;37.848;2023-01-25T13:58:21;100871.84;;;9.62;51.29
47785;BME280;35233;55.686;37.848;2023-01-25T14:01:13;100877.13;;;9.66;51.42
47785;BME280;35233;55.686;37.848;2023-01-25T14:03:42;100864.81;;;9.67;51.37
47785;BME280;35233;55.686;37.848;2023-01-25T14:06:23;100834.09;;;9.53;51.32
47785;BME280;35233;55.686;37.848;2023-01-25T14:08:52;100853.41;;;9.60;51.39
47785;BME280;35233;55.686;37.848;2023-01-25T14:11:28;100854.28;;;9.61;51.64
47785;BME280;35233;55.686;37.848;2023-01-25T14:16:42;100834.97;;;9.54;51.52
47785;BME280;35233;55.686;37.848;2023-01-25T14:19:25;100827.97;;;9.51;51.39
47785;BME280;35233;55.686;37.848;2023-01-25T14:24:41;100826.22;;;9.49;51.53
47785;BME280;35233;55.686;37.848;2023-01-25T14:27:12;100790.28;;;9.28;51.59
47785;BME280;35233;55.686;37.848;2023-01-25T14:29:38;100829.72;;;9.46;51.58
47785;BME280;35233;55.686;37.848;2023-01-25T14:32:04;100837.59;;;9.51;51.66
47785;BME280;35233;55.686;37.848;2023-01-25T14:34:30;100832.34;;;9.49;51.66
47785;BME280;35233;55.686;37.848;2023-01-25T14:37:16;100819.19;;;9.43;51.52
47785;BME280;35233;55.686;37.848;2023-01-25T14:39:43;100828.88;;;9.46;51.51
47785;BME280;35233;55.686;37.848;2023-01-25T14:42:09;100832.38;;;9.46;51.50
47785;BME280;35233;55.686;37.848;2023-01-25T14:44:35;100828.91;;;9.40;51.79
47785;BME280;35233;55.686;37.848;2023-01-25T14:47:30;100838.53;;;9.42;51.31
47785;BME280;35233;55.686;37.848;2023-01-25T14:50:34;100839.41;;;9.41;51.49
47785;BME280;35233;55.686;37.848;2023-01-25T14:53:26;100833.28;;;9.38;51.35
47785;BME280;35233;55.686;37.848;2023-01-25T14:55:52;100818.38;;;9.29;51.22
47785;BME280;35233;55.686;37.848;2023-01-25T14:58:21;100812.22;;;9.30;51.16